createdAt,value
2017-09-08T00:00:25.499Z,977.49
2017-09-08T00:01:04.517Z,977.46
2017-09-08T00:02:04.558Z,977.50
2017-09-08T00:03:04.603Z,977.47
2017-09-08T00:04:04.643Z,977.47
2017-09-08T00:05:04.682Z,977.50
2017-09-08T00:06:25.749Z,977.47
2017-09-08T00:07:04.768Z,977.44
2017-09-08T00:08:04.811Z,977.44
2017-09-08T00:09:04.852Z,977.38
2017-09-08T00:10:04.893Z,977.36
2017-09-08T00:11:04.933Z,977.39
2017-09-08T00:12:25.999Z,977.34
2017-09-08T00:13:05.019Z,977.35
2017-09-08T00:14:05.057Z,977.35
2017-09-08T00:15:05.100Z,977.33
2017-09-08T00:16:05.140Z,977.33
2017-09-08T00:17:05.181Z,977.29
2017-09-08T00:18:26.245Z,977.31
2017-09-08T00:19:05.267Z,977.30
2017-09-08T00:20:05.309Z,977.31
2017-09-08T00:21:05.347Z,977.30
2017-09-08T00:22:05.389Z,977.24
2017-09-08T00:23:05.431Z,977.26
2017-09-08T00:24:26.497Z,977.26
2017-09-08T00:25:05.514Z,977.21
2017-09-08T00:26:06.519Z,977.19
2017-09-08T00:27:05.599Z,977.17
2017-09-08T00:28:05.639Z,977.16
2017-09-08T00:29:05.682Z,977.16
2017-09-08T00:30:26.745Z,977.17
2017-09-08T00:31:05.763Z,977.19
2017-09-08T00:32:05.807Z,977.17
2017-09-08T00:33:05.848Z,977.17
2017-09-08T00:34:05.888Z,977.20
2017-09-08T00:35:05.929Z,977.20
2017-09-08T00:36:26.994Z,977.21
2017-09-08T00:37:06.012Z,977.21
2017-09-08T00:38:06.056Z,977.21
2017-09-08T00:39:06.096Z,977.24
2017-09-08T00:40:06.139Z,977.23
2017-09-08T00:41:06.179Z,977.27
2017-09-08T00:42:27.241Z,977.26
2017-09-08T00:43:06.262Z,977.20
2017-09-08T00:44:06.306Z,977.21
2017-09-08T00:45:06.344Z,977.18
2017-09-08T00:46:06.386Z,977.19
2017-09-08T00:47:06.427Z,977.20
2017-09-08T00:48:27.493Z,977.17
2017-09-08T00:49:06.514Z,977.18
2017-09-08T00:50:06.552Z,977.18
2017-09-08T00:51:06.596Z,977.22
2017-09-08T00:52:06.634Z,977.20
2017-09-08T00:53:06.676Z,977.21
2017-09-08T00:54:27.742Z,977.14
2017-09-08T00:55:06.759Z,977.17
2017-09-08T00:56:06.800Z,977.16
2017-09-08T00:57:06.845Z,977.12
2017-09-08T00:58:06.884Z,977.14
2017-09-08T00:59:06.927Z,977.12
2017-09-08T01:00:27.988Z,977.16
2017-09-08T01:01:07.008Z,977.14
2017-09-08T01:02:07.049Z,977.11
2017-09-08T01:03:07.091Z,977.12
2017-09-08T01:04:07.135Z,977.08
2017-09-08T01:05:07.173Z,977.11
2017-09-08T01:06:28.239Z,977.12
2017-09-08T01:07:07.257Z,977.15
2017-09-08T01:08:07.301Z,977.14
2017-09-08T01:09:07.339Z,977.12
2017-09-08T01:10:07.384Z,977.14
2017-09-08T01:11:07.422Z,977.14
2017-09-08T01:12:28.490Z,977.11
2017-09-08T01:13:07.509Z,977.11
2017-09-08T01:14:07.545Z,977.10
2017-09-08T01:15:07.589Z,977.08
2017-09-08T01:16:07.631Z,977.08
2017-09-08T01:17:07.671Z,977.06
2017-09-08T01:18:28.735Z,977.07
2017-09-08T01:19:07.758Z,977.02
2017-09-08T01:20:07.795Z,977.04
2017-09-08T01:21:07.839Z,976.99
2017-09-08T01:22:07.880Z,976.98
2017-09-08T01:23:07.921Z,976.95
2017-09-08T01:24:28.986Z,976.95
2017-09-08T01:25:08.002Z,976.93
2017-09-08T01:26:08.046Z,976.93
2017-09-08T01:27:08.086Z,976.92
2017-09-08T01:28:08.141Z,976.91
2017-09-08T01:29:08.168Z,976.89
2017-09-08T01:30:29.234Z,976.90
2017-09-08T01:31:08.253Z,976.90
2017-09-08T01:32:08.295Z,976.90
2017-09-08T01:33:08.336Z,976.91
2017-09-08T01:34:08.375Z,976.91
2017-09-08T01:35:08.417Z,976.89
2017-09-08T01:36:29.481Z,976.91
2017-09-08T01:37:08.501Z,976.91
2017-09-08T01:38:08.541Z,976.90
2017-09-08T01:39:08.582Z,976.86
2017-09-08T01:40:08.624Z,976.86
2017-09-08T01:41:08.664Z,976.88
2017-09-08T01:42:29.730Z,976.82
2017-09-08T01:43:08.758Z,976.81
2017-09-08T01:44:08.797Z,976.80
2017-09-08T01:45:08.830Z,976.76
2017-09-08T01:46:08.871Z,976.78
2017-09-08T01:47:08.914Z,976.76
2017-09-08T01:48:29.980Z,976.71
2017-09-08T01:49:08.996Z,976.65
2017-09-08T01:50:09.038Z,976.63
2017-09-08T01:51:09.081Z,976.56
2017-09-08T01:52:09.123Z,976.55
2017-09-08T01:53:09.162Z,976.54
2017-09-08T01:54:30.231Z,976.57
2017-09-08T01:55:09.245Z,976.58
2017-09-08T01:56:09.286Z,976.57
2017-09-08T01:57:09.327Z,976.55
2017-09-08T01:58:09.371Z,976.50
2017-09-08T01:59:09.410Z,976.48
2017-09-08T02:00:30.476Z,976.53
2017-09-08T02:01:09.493Z,976.47
2017-09-08T02:02:09.534Z,976.44
2017-09-08T02:03:09.580Z,976.45
2017-09-08T02:04:09.618Z,976.43
2017-09-08T02:05:09.658Z,976.43
2017-09-08T02:06:30.722Z,976.41
2017-09-08T02:07:09.744Z,976.36
2017-09-08T02:08:09.787Z,976.40
2017-09-08T02:09:09.825Z,976.33
2017-09-08T02:10:09.866Z,976.35
2017-09-08T02:11:09.910Z,976.36
2017-09-08T02:12:30.985Z,976.40
2017-09-08T02:13:09.989Z,976.40
2017-09-08T02:14:10.031Z,976.43
2017-09-08T02:15:10.074Z,976.43
2017-09-08T02:16:10.114Z,976.39
2017-09-08T02:17:10.158Z,976.36
2017-09-08T02:18:31.219Z,976.37
2017-09-08T02:19:10.238Z,976.37
2017-09-08T02:20:10.282Z,976.38
2017-09-08T02:21:10.320Z,976.33
2017-09-08T02:22:10.362Z,976.42
2017-09-08T02:23:10.406Z,976.36
2017-09-08T02:24:31.468Z,976.42
2017-09-08T02:25:10.487Z,976.42
2017-09-08T02:26:10.529Z,976.51
2017-09-08T02:27:10.570Z,976.43
2017-09-08T02:28:10.612Z,976.43
2017-09-08T02:29:10.653Z,976.43
2017-09-08T02:30:31.715Z,976.44
2017-09-08T02:31:10.737Z,976.43
2017-09-08T02:32:10.778Z,976.50
2017-09-08T02:33:10.818Z,976.49
2017-09-08T02:34:10.860Z,976.43
2017-09-08T02:35:10.901Z,976.48
2017-09-08T02:36:31.965Z,976.42
2017-09-08T02:37:10.983Z,976.40
2017-09-08T02:38:11.025Z,976.39
2017-09-08T02:39:11.067Z,976.37
2017-09-08T02:40:11.107Z,976.37
2017-09-08T02:41:11.148Z,976.38
2017-09-08T02:42:32.213Z,976.38
2017-09-08T02:43:11.232Z,976.37
2017-09-08T02:44:11.272Z,976.36
2017-09-08T02:45:11.316Z,976.37
2017-09-08T02:46:11.355Z,976.34
2017-09-08T02:47:11.395Z,976.41
2017-09-08T02:48:32.461Z,976.38
2017-09-08T02:49:11.480Z,976.38
2017-09-08T02:50:11.520Z,976.34
2017-09-08T02:51:11.562Z,976.33
2017-09-08T02:52:11.607Z,976.34
2017-09-08T02:53:11.653Z,976.38
2017-09-08T02:54:32.707Z,976.32
2017-09-08T02:55:11.727Z,976.35
2017-09-08T02:56:11.769Z,976.35
2017-09-08T02:57:11.809Z,976.30
2017-09-08T02:58:11.853Z,976.33
2017-09-08T02:59:11.893Z,976.28
2017-09-08T03:00:32.957Z,976.28
2017-09-08T03:01:11.974Z,976.26
2017-09-08T03:02:12.018Z,976.27
2017-09-08T03:03:12.057Z,976.25
2017-09-08T03:04:12.102Z,976.21
2017-09-08T03:05:12.138Z,976.20
2017-09-08T03:06:33.204Z,976.22
2017-09-08T03:07:12.227Z,976.17
2017-09-08T03:08:12.264Z,976.16
2017-09-08T03:09:12.307Z,976.17
2017-09-08T03:10:12.347Z,976.13
2017-09-08T03:11:12.386Z,976.13
2017-09-08T03:12:33.454Z,976.13
2017-09-08T03:13:12.470Z,976.12
2017-09-08T03:14:12.511Z,976.04
2017-09-08T03:15:12.554Z,976.07
2017-09-08T03:16:12.594Z,976.05
2017-09-08T03:17:12.636Z,976.08
2017-09-08T03:18:33.699Z,976.06
2017-09-08T03:19:12.719Z,976.02
2017-09-08T03:20:12.761Z,976.04
2017-09-08T03:21:12.802Z,976.02
2017-09-08T03:22:12.842Z,976.05
2017-09-08T03:23:12.884Z,976.07
2017-09-08T03:24:33.947Z,976.09
2017-09-08T03:25:12.966Z,976.02
2017-09-08T03:26:13.008Z,976.01
2017-09-08T03:27:13.051Z,976.02
2017-09-08T03:28:13.093Z,975.96
2017-09-08T03:29:13.132Z,976.00
2017-09-08T03:30:34.198Z,975.99
2017-09-08T03:31:13.226Z,975.96
2017-09-08T03:32:13.257Z,976.01
2017-09-08T03:33:13.296Z,975.97
2017-09-08T03:34:13.338Z,975.95
2017-09-08T03:35:13.380Z,975.96
2017-09-08T03:36:34.444Z,975.92
2017-09-08T03:37:13.461Z,975.93
2017-09-08T03:38:13.506Z,975.94
2017-09-08T03:39:13.546Z,975.92
2017-09-08T03:40:13.586Z,975.94
2017-09-08T03:41:13.629Z,975.90
2017-09-08T03:42:34.692Z,975.91
2017-09-08T03:43:13.715Z,975.92
2017-09-08T03:44:13.751Z,975.94
2017-09-08T03:45:13.792Z,975.88
2017-09-08T03:46:13.837Z,975.89
2017-09-08T03:47:13.876Z,975.93
2017-09-08T03:48:35.048Z,975.87
2017-09-08T03:49:13.957Z,975.92
2017-09-08T03:50:13.997Z,975.91
2017-09-08T03:51:14.039Z,975.92
2017-09-08T03:52:14.084Z,975.92
2017-09-08T03:53:14.121Z,975.92
2017-09-08T03:54:35.187Z,975.89
2017-09-08T03:55:14.204Z,975.88
2017-09-08T03:56:14.250Z,975.88
2017-09-08T03:57:14.288Z,975.82
2017-09-08T03:58:14.328Z,975.87
2017-09-08T03:59:14.373Z,975.83
2017-09-08T04:00:35.433Z,975.79
2017-09-08T04:01:14.452Z,975.79
2017-09-08T04:02:14.498Z,975.72
2017-09-08T04:03:14.536Z,975.68
2017-09-08T04:04:14.577Z,975.70
2017-09-08T04:05:14.619Z,975.71
2017-09-08T04:06:35.680Z,975.70
2017-09-08T04:07:14.700Z,975.72
2017-09-08T04:08:14.742Z,975.65
2017-09-08T04:09:14.782Z,975.69
2017-09-08T04:10:14.823Z,975.66
2017-09-08T04:11:14.866Z,975.62
2017-09-08T04:12:35.929Z,975.65
2017-09-08T04:13:14.949Z,975.63
2017-09-08T04:14:14.992Z,975.71
2017-09-08T04:15:15.031Z,975.69
2017-09-08T04:16:15.073Z,975.65
2017-09-08T04:17:15.113Z,975.65
2017-09-08T04:18:36.181Z,975.67
2017-09-08T04:19:15.194Z,975.64
2017-09-08T04:20:15.239Z,975.63
2017-09-08T04:21:15.279Z,975.56
2017-09-08T04:22:15.320Z,975.62
2017-09-08T04:23:15.359Z,975.60
2017-09-08T04:24:36.425Z,975.57
2017-09-08T04:25:15.442Z,975.59
2017-09-08T04:26:15.484Z,975.57
2017-09-08T04:27:15.525Z,975.61
2017-09-08T04:28:15.568Z,975.57
2017-09-08T04:29:15.610Z,975.59
2017-09-08T04:30:36.671Z,975.58
2017-09-08T04:31:15.690Z,975.58
2017-09-08T04:32:15.733Z,975.56
2017-09-08T04:33:15.776Z,975.55
2017-09-08T04:34:15.813Z,975.52
2017-09-08T04:35:15.856Z,975.55
2017-09-08T04:36:36.920Z,975.52
2017-09-08T04:37:15.938Z,975.51
2017-09-08T04:38:16.088Z,975.45
2017-09-08T04:39:16.077Z,975.50
2017-09-08T04:40:16.062Z,975.42
2017-09-08T04:41:16.106Z,975.41
2017-09-08T04:42:37.166Z,975.39
2017-09-08T04:43:16.266Z,975.37
2017-09-08T04:44:16.229Z,975.36
2017-09-08T04:45:16.269Z,975.25
2017-09-08T04:46:16.310Z,975.29
2017-09-08T04:47:16.353Z,975.28
2017-09-08T04:48:37.418Z,975.27
2017-09-08T04:49:16.434Z,975.27
2017-09-08T04:50:16.482Z,975.25
2017-09-08T04:51:16.520Z,975.25
2017-09-08T04:52:18.625Z,975.22
2017-09-08T04:53:16.609Z,975.30
2017-09-08T04:54:37.663Z,975.26
2017-09-08T04:55:16.683Z,975.22
2017-09-08T04:56:16.731Z,975.19
2017-09-08T04:57:16.764Z,975.25
2017-09-08T04:58:16.806Z,975.24
2017-09-08T04:59:16.846Z,975.26
2017-09-08T05:00:37.914Z,975.18
2017-09-08T05:01:16.930Z,975.23
2017-09-08T05:02:16.973Z,975.24
2017-09-08T05:03:17.019Z,975.19
2017-09-08T05:04:17.057Z,975.23
2017-09-08T05:05:17.097Z,975.21
2017-09-08T05:06:38.164Z,975.21
2017-09-08T05:07:17.179Z,975.24
2017-09-08T05:08:17.221Z,975.22
2017-09-08T05:09:17.273Z,975.17
2017-09-08T05:10:17.304Z,975.17
2017-09-08T05:11:18.088Z,975.15
2017-09-08T05:12:38.414Z,975.15
2017-09-08T05:13:17.428Z,975.18
2017-09-08T05:14:17.468Z,975.19
2017-09-08T05:15:17.513Z,975.20
2017-09-08T05:16:17.552Z,975.19
2017-09-08T05:17:17.591Z,975.17
2017-09-08T05:18:38.656Z,975.18
2017-09-08T05:19:17.673Z,975.22
2017-09-08T05:20:17.716Z,975.20
2017-09-08T05:21:17.763Z,975.23
2017-09-08T05:22:17.817Z,975.20
2017-09-08T05:23:17.841Z,975.16
2017-09-08T05:24:38.906Z,975.21
2017-09-08T05:25:17.923Z,975.17
2017-09-08T05:26:17.969Z,975.15
2017-09-08T05:27:18.012Z,975.13
2017-09-08T05:28:18.050Z,975.19
2017-09-08T05:29:18.090Z,975.17
2017-09-08T05:30:39.153Z,975.14
2017-09-08T05:31:18.174Z,975.17
2017-09-08T05:32:18.213Z,975.17
2017-09-08T05:33:18.264Z,975.19
2017-09-08T05:34:18.294Z,975.13
2017-09-08T05:35:18.337Z,975.19
2017-09-08T05:36:39.401Z,975.20
2017-09-08T05:37:18.420Z,975.20
2017-09-08T05:38:18.461Z,975.21
2017-09-08T05:39:18.501Z,975.22
2017-09-08T05:40:18.548Z,975.25
2017-09-08T05:41:18.582Z,975.20
2017-09-08T05:42:39.734Z,975.26
2017-09-08T05:43:18.674Z,975.21
2017-09-08T05:44:18.787Z,975.19
2017-09-08T05:45:18.754Z,975.20
2017-09-08T05:46:18.789Z,975.27
2017-09-08T05:47:18.834Z,975.23
2017-09-08T05:48:39.898Z,975.19
2017-09-08T05:49:18.912Z,975.12
2017-09-08T05:50:18.957Z,975.15
2017-09-08T05:51:19.003Z,975.12
2017-09-08T05:52:19.036Z,975.15
2017-09-08T05:53:19.078Z,975.12
2017-09-08T05:54:40.141Z,975.05
2017-09-08T05:55:19.160Z,975.07
2017-09-08T05:56:19.204Z,975.09
2017-09-08T05:57:19.246Z,975.02
2017-09-08T05:58:19.285Z,975.10
2017-09-08T05:59:19.329Z,975.07
2017-09-08T06:00:40.394Z,975.05
2017-09-08T06:01:19.411Z,975.00
2017-09-08T06:02:19.454Z,975.00
2017-09-08T06:03:19.492Z,974.97
2017-09-08T06:04:19.534Z,975.00
2017-09-08T06:05:19.684Z,974.91
2017-09-08T06:06:40.638Z,974.93
2017-09-08T06:07:19.657Z,974.88
2017-09-08T06:08:19.702Z,974.86
2017-09-08T06:09:19.740Z,974.87
2017-09-08T06:10:19.787Z,974.90
2017-09-08T06:11:19.818Z,974.84
2017-09-08T06:12:40.893Z,974.85
2017-09-08T06:13:19.899Z,974.82
2017-09-08T06:14:19.941Z,974.77
2017-09-08T06:15:19.979Z,974.90
2017-09-08T06:16:20.021Z,974.82
2017-09-08T06:17:20.060Z,974.79
2017-09-08T06:18:41.124Z,974.86
2017-09-08T06:19:20.139Z,974.85
2017-09-08T06:20:20.227Z,974.87
2017-09-08T06:21:20.241Z,974.84
2017-09-08T06:22:20.260Z,974.85
2017-09-08T06:23:20.301Z,974.85
2017-09-08T06:24:41.363Z,974.90
2017-09-08T06:25:20.378Z,974.86
2017-09-08T06:26:20.421Z,974.81
2017-09-08T06:27:20.458Z,974.84
2017-09-08T06:28:20.499Z,974.84
2017-09-08T06:29:20.533Z,974.82
2017-09-08T06:30:41.602Z,974.86
2017-09-08T06:31:20.614Z,974.81
2017-09-08T06:32:20.699Z,974.82
2017-09-08T06:33:20.691Z,974.81
2017-09-08T06:34:20.738Z,974.75
2017-09-08T06:35:20.774Z,974.75
2017-09-08T06:36:41.831Z,974.76
2017-09-08T06:37:20.850Z,974.78
2017-09-08T06:38:20.912Z,974.78
2017-09-08T06:39:20.929Z,974.78
2017-09-08T06:40:20.971Z,974.77
2017-09-08T06:41:21.011Z,974.75
2017-09-08T06:42:42.068Z,974.76
2017-09-08T06:43:21.086Z,974.72
2017-09-08T06:44:21.127Z,974.74
2017-09-08T06:45:21.176Z,974.70
2017-09-08T06:46:21.214Z,974.71
2017-09-08T06:47:21.249Z,974.71
2017-09-08T06:48:42.319Z,974.77
2017-09-08T06:49:21.335Z,974.72
2017-09-08T06:50:21.372Z,974.73
2017-09-08T06:51:21.415Z,974.81
2017-09-08T06:52:21.495Z,974.80
2017-09-08T06:53:21.491Z,974.76
2017-09-08T06:54:42.555Z,974.77
2017-09-08T06:55:21.579Z,974.74
2017-09-08T06:56:21.630Z,974.72
2017-09-08T06:57:21.658Z,974.77
2017-09-08T06:58:21.707Z,974.77
2017-09-08T06:59:21.816Z,974.82
2017-09-08T07:00:42.920Z,974.82
2017-09-08T09:09:17.646Z,974.14
2017-09-08T09:10:16.325Z,974.13
2017-09-08T09:12:09.251Z,974.03
2017-09-08T09:13:09.311Z,974.10
2017-09-08T09:15:02.309Z,973.90
2017-09-08T09:16:02.316Z,973.95
2017-09-08T09:17:55.289Z,973.97
2017-09-08T09:18:55.312Z,973.95
2017-09-08T09:20:48.391Z,973.94
2017-09-08T09:21:48.345Z,973.90
2017-09-08T09:22:48.380Z,973.83
2017-09-08T09:23:48.444Z,973.83
2017-09-08T09:24:48.485Z,973.79
2017-09-08T09:25:48.483Z,973.83
2017-09-08T09:26:48.525Z,973.79
2017-09-08T09:27:48.573Z,973.82
2017-09-08T09:28:48.609Z,973.77
2017-09-08T09:29:48.649Z,973.76
2017-09-08T09:30:48.692Z,973.72
2017-09-08T09:31:48.736Z,973.81
2017-09-08T09:32:48.775Z,973.75
2017-09-08T09:33:48.954Z,973.67
2017-09-08T09:34:48.863Z,973.77
2017-09-08T09:35:49.008Z,973.76
2017-09-08T09:36:48.996Z,973.66
2017-09-08T09:37:49.113Z,973.75
2017-09-08T09:38:49.091Z,973.76
2017-09-08T09:39:49.124Z,973.71
2017-09-08T09:40:49.151Z,973.70
2017-09-08T09:41:49.264Z,973.68
2017-09-08T09:42:49.335Z,973.73
2017-09-08T09:43:49.309Z,973.67
2017-09-08T09:44:49.309Z,973.62
2017-09-08T09:45:49.372Z,973.56
2017-09-08T09:46:49.436Z,973.65
2017-09-08T09:47:49.489Z,973.65
2017-09-08T09:48:49.542Z,973.60
2017-09-08T09:49:49.547Z,973.52
2017-09-08T09:50:49.591Z,973.61
2017-09-08T09:51:49.619Z,973.52
2017-09-08T09:52:49.629Z,973.55
2017-09-08T09:53:49.686Z,973.48
2017-09-08T09:54:49.714Z,973.54
2017-09-08T09:55:49.767Z,973.40
2017-09-08T09:56:49.848Z,973.47
2017-09-08T09:57:49.880Z,973.39
2017-09-08T09:58:49.928Z,973.39
2017-09-08T09:59:49.956Z,973.42
2017-09-08T10:00:50.071Z,973.40
2017-09-08T10:01:50.040Z,973.37
2017-09-08T10:02:50.108Z,973.51
2017-09-08T10:03:50.186Z,973.46
2017-09-08T10:04:50.188Z,973.44
2017-09-08T10:05:50.213Z,973.42
2017-09-08T10:06:50.261Z,973.37
2017-09-08T10:07:50.312Z,973.37
2017-09-08T10:08:50.352Z,973.45
2017-09-08T10:09:50.405Z,973.49
2017-09-08T10:10:50.447Z,973.40
2017-09-08T10:11:50.620Z,973.38
2017-09-08T10:12:50.523Z,973.38
2017-09-08T10:13:50.546Z,973.35
2017-09-08T10:14:50.628Z,973.28
2017-09-08T10:15:50.655Z,973.41
2017-09-08T10:16:50.686Z,973.38
2017-09-08T10:17:50.733Z,973.31
2017-09-08T10:18:50.781Z,973.35
2017-09-08T10:19:50.827Z,973.36
2017-09-08T10:20:50.881Z,973.33
2017-09-08T10:21:50.959Z,973.42
2017-09-08T10:22:50.951Z,973.40
2017-09-08T10:23:50.989Z,973.42
2017-09-08T10:24:51.052Z,973.38
2017-09-08T10:25:51.085Z,973.36
2017-09-08T10:26:51.178Z,973.40
2017-09-08T10:27:51.168Z,973.31
2017-09-08T10:28:51.215Z,973.32
2017-09-08T10:29:51.257Z,973.38
2017-09-08T10:30:51.305Z,973.40
2017-09-08T10:31:51.364Z,973.32
2017-09-08T10:32:51.389Z,973.31
2017-09-08T10:33:51.418Z,973.32
2017-09-08T10:34:51.475Z,973.37
2017-09-08T10:35:51.524Z,973.34
2017-09-08T10:36:51.562Z,973.29
2017-09-08T10:37:51.590Z,973.19
2017-09-08T10:38:51.673Z,973.30
2017-09-08T10:39:51.668Z,973.35
2017-09-08T10:40:51.745Z,973.34
2017-09-08T10:41:51.759Z,973.37
2017-09-08T10:42:51.812Z,973.40
2017-09-08T10:43:51.886Z,973.54
2017-09-08T10:44:51.893Z,973.47
2017-09-08T10:45:51.925Z,973.44
2017-09-08T10:46:51.992Z,973.41
2017-09-08T10:47:52.005Z,973.39
2017-09-08T10:48:52.069Z,973.46
2017-09-08T10:49:52.087Z,973.44
2017-09-08T10:50:52.221Z,973.46
2017-09-08T10:51:52.193Z,973.40
2017-09-08T10:52:52.228Z,973.42
2017-09-08T10:53:52.258Z,973.40
2017-09-08T10:54:52.321Z,973.50
2017-09-08T10:55:52.360Z,973.43
2017-09-08T10:56:52.389Z,973.48
2017-09-08T10:57:52.429Z,973.40
2017-09-08T10:58:52.534Z,973.46
2017-09-08T10:59:52.516Z,973.47
2017-09-08T11:00:52.560Z,973.47
2017-09-08T11:01:52.610Z,973.41
2017-09-08T11:02:52.642Z,973.49
2017-09-08T11:03:52.686Z,973.48
2017-09-08T11:04:52.732Z,973.43
2017-09-08T11:05:52.749Z,973.43
2017-09-08T11:06:52.833Z,973.46
2017-09-08T11:07:52.869Z,973.44
2017-09-08T11:08:52.883Z,973.48
2017-09-08T11:09:52.944Z,973.38
2017-09-08T11:10:53.014Z,973.43
2017-09-08T11:11:53.033Z,973.45
2017-09-08T11:12:53.061Z,973.47
2017-09-08T11:13:53.089Z,973.44
2017-09-08T11:14:53.158Z,973.40
2017-09-08T11:15:53.194Z,973.35
2017-09-08T11:16:53.240Z,973.40
2017-09-08T11:17:53.274Z,973.40
2017-09-08T11:18:53.313Z,973.45
2017-09-08T11:19:53.357Z,973.42
2017-09-08T11:20:53.400Z,973.41
2017-09-08T11:21:53.440Z,973.42
2017-09-08T11:22:53.495Z,973.44
2017-09-08T11:23:53.488Z,973.40
2017-09-08T11:24:53.586Z,973.34
2017-09-08T11:25:53.573Z,973.31
2017-09-08T11:26:53.617Z,973.30
2017-09-08T11:27:53.669Z,973.31
2017-09-08T11:28:53.698Z,973.33
2017-09-08T11:29:53.741Z,973.27
2017-09-08T11:30:53.782Z,973.30
2017-09-08T11:31:53.829Z,973.40
2017-09-08T11:32:53.866Z,973.31
2017-09-08T11:33:53.907Z,973.37
2017-09-08T11:34:53.952Z,973.38
2017-09-08T11:35:53.995Z,973.36
2017-09-08T11:36:54.033Z,973.30
2017-09-08T11:37:54.080Z,973.34
2017-09-08T11:38:54.121Z,973.37
2017-09-08T11:39:54.162Z,973.32
2017-09-08T11:40:54.201Z,973.31
2017-09-08T11:41:54.242Z,973.29
2017-09-08T11:42:54.286Z,973.33
2017-09-08T11:43:54.328Z,973.26
2017-09-08T11:44:54.375Z,973.30
2017-09-08T11:45:54.410Z,973.23
2017-09-08T11:46:54.454Z,973.22
2017-09-08T11:47:54.497Z,973.28
2017-09-08T11:48:54.538Z,973.23
2017-09-08T11:49:54.623Z,973.19
2017-09-08T11:50:54.621Z,973.13
2017-09-08T11:51:54.667Z,973.19
2017-09-08T11:52:55.750Z,973.23
2017-09-08T11:53:55.249Z,973.21
2017-09-08T11:54:54.795Z,973.23
2017-09-08T11:55:54.833Z,973.30
2017-09-08T11:56:54.870Z,973.33
2017-09-08T11:57:54.916Z,973.31
2017-09-08T11:58:54.957Z,973.32
2017-09-08T11:59:54.998Z,973.33
2017-09-08T12:00:55.039Z,973.31
2017-09-08T12:01:55.913Z,973.24
2017-09-08T12:02:55.127Z,973.30
2017-09-08T12:03:55.260Z,973.31
2017-09-08T12:04:55.302Z,973.27
2017-09-08T12:05:55.255Z,973.21
2017-09-08T12:06:55.290Z,973.22
2017-09-08T12:07:55.332Z,973.21
2017-09-08T12:08:55.376Z,973.17
2017-09-08T12:09:55.414Z,973.14
2017-09-08T12:10:55.456Z,973.19
2017-09-08T12:11:55.500Z,973.08
2017-09-08T12:12:55.540Z,973.11
2017-09-08T12:13:55.588Z,973.12
2017-09-08T12:14:55.625Z,973.08
2017-09-08T12:15:55.665Z,973.06
2017-09-08T12:16:55.810Z,973.12
2017-09-08T12:17:55.796Z,973.07
2017-09-08T12:18:55.824Z,972.93
2017-09-08T12:19:55.833Z,972.90
2017-09-08T12:20:55.874Z,973.03
2017-09-08T12:21:55.915Z,972.93
2017-09-08T12:22:55.959Z,972.93
2017-09-08T12:23:56.005Z,973.00
2017-09-08T12:24:56.048Z,972.91
2017-09-08T12:25:56.084Z,973.00
2017-09-08T12:26:56.126Z,972.99
2017-09-08T12:27:56.170Z,972.95
2017-09-08T12:28:56.207Z,972.86
2017-09-08T12:29:56.248Z,972.89
2017-09-08T12:30:56.293Z,972.86
2017-09-08T12:31:56.334Z,972.85
2017-09-08T12:32:56.374Z,972.80
2017-09-08T12:33:56.418Z,972.89
2017-09-08T12:34:56.460Z,972.84
2017-09-08T12:35:56.500Z,972.94
2017-09-08T12:36:56.541Z,972.97
2017-09-08T12:37:56.582Z,972.86
2017-09-08T12:38:56.625Z,972.79
2017-09-08T12:39:56.668Z,972.84
2017-09-08T12:40:56.710Z,972.91
2017-09-08T12:41:56.889Z,972.83
2017-09-08T12:42:56.797Z,972.83
2017-09-08T12:43:56.836Z,972.88
2017-09-08T12:44:56.878Z,972.78
2017-09-08T12:45:56.917Z,972.80
2017-09-08T12:46:56.961Z,972.82
2017-09-08T12:47:57.005Z,972.76
2017-09-08T12:48:57.044Z,972.76
2017-09-08T12:49:57.090Z,972.70
2017-09-08T12:50:57.131Z,972.74
2017-09-08T12:51:57.166Z,972.68
2017-09-08T12:52:57.207Z,972.72
2017-09-08T12:53:57.250Z,972.71
2017-09-08T12:54:57.292Z,972.74
2017-09-08T12:55:57.334Z,972.77
2017-09-08T12:56:57.375Z,972.72
2017-09-08T12:57:57.416Z,972.75
2017-09-08T12:58:57.465Z,972.79
2017-09-08T12:59:57.502Z,972.75
2017-09-08T13:00:57.544Z,972.71
2017-09-08T13:01:57.586Z,972.68
2017-09-08T13:02:57.629Z,972.69
2017-09-08T13:03:57.677Z,972.66
2017-09-08T13:04:57.719Z,972.62
2017-09-08T13:05:57.755Z,972.72
2017-09-08T13:06:57.877Z,972.66
2017-09-08T13:07:57.843Z,972.61
2017-09-08T13:08:57.876Z,972.60
2017-09-08T13:09:57.939Z,972.59
2017-09-08T13:10:58.009Z,972.55
2017-09-08T13:11:58.009Z,972.56
2017-09-08T13:12:58.050Z,972.58
2017-09-08T13:13:58.089Z,972.59
2017-09-08T13:14:58.129Z,972.59
2017-09-08T13:15:58.172Z,972.56
2017-09-08T13:16:58.210Z,972.67
2017-09-08T13:17:58.252Z,972.62
2017-09-08T13:18:58.297Z,972.64
2017-09-08T13:19:58.336Z,972.53
2017-09-08T13:20:58.382Z,972.54
2017-09-08T13:21:58.419Z,972.54
2017-09-08T13:22:58.479Z,972.58
2017-09-08T13:23:58.502Z,972.51
2017-09-08T13:24:58.544Z,972.54
2017-09-08T13:25:58.594Z,972.52
2017-09-08T13:26:58.631Z,972.51
2017-09-08T13:27:58.693Z,972.43
2017-09-08T13:28:58.722Z,972.49
2017-09-08T13:29:58.757Z,972.48
2017-09-08T13:30:58.801Z,972.48
2017-09-08T13:31:58.837Z,972.46
2017-09-08T13:32:58.880Z,972.37
2017-09-08T13:33:58.921Z,972.37
2017-09-08T13:34:58.969Z,972.34
2017-09-08T13:35:59.035Z,972.28
2017-09-08T13:36:59.048Z,972.29
2017-09-08T13:37:59.089Z,972.23
2017-09-08T13:38:59.131Z,972.22
2017-09-08T13:39:59.172Z,972.21
2017-09-08T13:40:59.216Z,972.16
2017-09-08T13:41:59.261Z,972.22
2017-09-08T13:42:59.295Z,972.19
2017-09-08T13:43:59.340Z,972.20
2017-09-08T13:44:59.381Z,972.18
2017-09-08T13:45:59.421Z,972.20
2017-09-08T13:46:59.464Z,972.15
2017-09-08T13:47:59.504Z,972.11
2017-09-08T13:48:59.545Z,972.10
2017-09-08T13:49:59.588Z,972.20
2017-09-08T13:50:59.636Z,972.12
2017-09-08T13:51:59.675Z,972.08
2017-09-08T13:52:59.743Z,972.09
2017-09-08T13:53:59.752Z,972.13
2017-09-08T13:54:59.796Z,972.08
2017-09-08T13:55:59.837Z,972.10
2017-09-08T13:56:59.879Z,972.04
2017-09-08T13:57:59.922Z,972.03
2017-09-08T13:58:59.962Z,972.12
2017-09-08T14:00:00.004Z,972.07
2017-09-08T14:01:00.049Z,972.12
2017-09-08T14:02:00.088Z,972.04
2017-09-08T14:03:00.130Z,972.08
2017-09-08T14:04:00.172Z,972.08
2017-09-08T14:05:00.212Z,972.07
2017-09-08T14:06:00.254Z,972.06
2017-09-08T14:07:00.297Z,972.01
2017-09-08T14:08:00.338Z,971.99
2017-09-08T14:09:00.379Z,971.99
2017-09-08T14:10:00.420Z,972.05
2017-09-08T14:11:00.462Z,972.06
2017-09-08T14:12:00.507Z,972.04
2017-09-08T14:13:00.548Z,972.04
2017-09-08T14:14:00.588Z,971.99
2017-09-08T14:15:00.627Z,971.96
2017-09-08T14:16:00.669Z,971.94
2017-09-08T14:17:00.709Z,971.99
2017-09-08T14:18:00.751Z,971.98
2017-09-08T14:19:00.793Z,972.03
2017-09-08T14:20:00.837Z,972.03
2017-09-08T14:21:00.875Z,972.04
2017-09-08T14:22:00.917Z,972.04
2017-09-08T14:23:00.958Z,972.01
2017-09-08T14:24:01.002Z,972.01
2017-09-08T14:25:01.040Z,971.97
2017-09-08T14:26:01.082Z,971.91
2017-09-08T14:27:01.124Z,971.94
2017-09-08T14:28:01.165Z,971.97
2017-09-08T14:29:01.206Z,971.99
2017-09-08T14:30:01.247Z,971.95
2017-09-08T14:31:01.290Z,971.96
2017-09-08T14:32:01.361Z,971.92
2017-09-08T14:33:01.371Z,971.90
2017-09-08T14:34:01.416Z,971.82
2017-09-08T14:35:01.454Z,971.80
2017-09-08T14:36:01.499Z,971.86
2017-09-08T14:37:01.537Z,971.83
2017-09-08T14:38:01.578Z,971.76
2017-09-08T14:39:01.622Z,971.70
2017-09-08T14:40:01.663Z,971.77